Time;durP1;ratioP1;P1;durP2;ratioP2;P2;SDS_P1;SDS_P2;PMS_P1;PMS_P2;Temp;Humidity;BMP_temperature;BMP_pressure;BME280_temperature;BME280_humidity;BME280_pressure;Samples;Min_cycle;Max_cycle;Signal;HPM_P1;HPM_P2
2022/06/10 00:00:47;;;;;;;569.58;536.90;;;13.00;99.90;;;12.47;100.00;100894.38;5010866;28;20226;-63
2022/06/10 00:03:17;;;;;;;549.85;520.75;;;12.80;99.90;;;12.48;100.00;100893.50;5013125;28;20206;-63
2022/06/10 00:05:48;;;;;;;555.53;524.20;;;12.70;99.90;;;12.56;100.00;100906.84;5030136;28;20217;-63
2022/06/10 00:08:23;;;;;;;557.78;525.53;;;12.70;99.90;;;12.64;100.00;100916.66;5029959;28;20202;-63
2022/06/10 00:10:51;;;;;;;565.88;532.08;;;12.70;99.90;;;12.61;100.00;100923.69;4996421;28;20249;-63
2022/06/10 00:13:25;;;;;;;543.33;512.17;;;12.80;99.90;;;12.59;100.00;100917.47;4997015;28;20209;-63
2022/06/10 00:15:54;;;;;;;378.55;355.80;;;12.70;99.90;;;12.37;100.00;100922.59;5036180;28;21154;-63
2022/06/10 00:18:25;;;;;;;553.92;519.92;;;12.70;99.90;;;12.44;100.00;100940.34;5004279;28;20203;-63
2022/06/10 00:20:53;;;;;;;546.17;513.95;;;12.60;99.90;;;12.18;100.00;100948.03;5014605;28;20222;-63
2022/06/10 00:23:20;;;;;;;541.97;510.92;;;12.50;99.90;;;12.44;100.00;100964.22;5006529;28;20666;-63
2022/06/10 00:25:48;;;;;;;539.45;508.33;;;12.50;99.90;;;12.51;100.00;100973.13;5017590;28;20202;-63
2022/06/10 00:28:16;;;;;;;536.08;505.67;;;12.50;99.90;;;12.25;100.00;100980.81;4984582;28;20207;-63
2022/06/10 00:30:45;;;;;;;534.42;502.88;;;12.50;99.90;;;12.53;100.00;101005.88;5035324;28;20225;-63
2022/06/10 00:33:13;;;;;;;541.90;509.20;;;12.50;99.90;;;12.56;100.00;101008.56;5001542;28;20213;-63
2022/06/10 00:35:42;;;;;;;537.53;506.45;;;12.50;99.90;;;12.55;100.00;100995.28;4995999;28;20210;-63
2022/06/10 00:38:11;;;;;;;536.03;504.73;;;12.50;99.90;;;12.54;100.00;100989.06;5017797;28;20203;-64
2022/06/10 00:40:46;;;;;;;538.67;505.52;;;12.50;99.90;;;12.35;100.00;100997.72;5010284;28;20592;-63
2022/06/10 00:43:18;;;;;;;158.13;68.45;;;12.60;99.90;;;12.13;100.00;100996.59;5001973;28;20229;-63
2022/06/10 00:46:18;;;;;;;510.60;481.75;;;12.40;99.90;;;12.09;100.00;101006.28;5018515;28;20205;-63
2022/06/10 00:49:07;;;;;;;515.85;484.30;;;12.30;99.90;;;12.11;100.00;101014.25;5006771;28;20202;-63
2022/06/10 00:51:43;;;;;;;505.42;474.77;;;12.20;99.90;;;12.16;100.00;101017.84;5022811;28;20229;-63
2022/06/10 00:54:39;;;;;;;499.40;470.60;;;12.20;99.90;;;12.07;100.00;101025.69;5015226;28;20217;-63
2022/06/10 00:57:26;;;;;;;493.73;464.67;;;12.20;99.90;;;12.07;100.00;101033.63;5031682;28;20209;-63
2022/06/10 01:00:03;;;;;;;495.73;465.60;;;12.20;99.90;;;12.29;100.00;101037.44;5021846;28;20201;-63
2022/06/10 01:02:34;;;;;;;504.35;473.45;;;12.20;99.90;;;12.25;100.00;101017.06;5034358;28;20230;-63
2022/06/10 01:05:33;;;;;;;502.13;470.85;;;12.20;99.90;;;12.15;100.00;101018.72;5003452;28;20225;-63
2022/06/10 01:08:08;;;;;;;500.70;468.10;;;12.20;99.90;;;11.75;100.00;101020.81;5044126;28;20207;-63
2022/06/10 01:11:06;;;;;;;512.50;478.17;;;12.10;99.90;;;11.73;100.00;101037.56;5001759;28;20226;-63
2022/06/10 01:13:58;;;;;;;493.17;462.27;;;12.00;99.90;;;11.82;100.00;101051.88;5019950;28;20210;-63
2022/06/10 01:17:00;;;;;;;494.67;462.73;;;12.00;99.90;;;11.95;100.00;101060.88;5043912;28;20210;-63
2022/06/10 01:19:43;;;;;;;486.20;454.67;;;12.00;99.90;;;11.92;100.00;101059.94;5046699;28;20214;-63
2022/06/10 01:22:51;;;;;;;493.00;461.10;;;12.00;99.90;;;11.69;100.00;101056.91;5038245;28;20694;-63
2022/06/10 01:25:59;;;;;;;470.30;441.80;;;12.00;99.90;;;11.68;100.00;101068.38;5033857;28;20206;-63
2022/06/10 01:28:51;;;;;;;438.38;413.45;;;11.90;99.90;;;11.69;100.00;101076.34;5022982;28;20206;-63
2022/06/10 01:31:38;;;;;;;444.73;420.13;;;11.90;99.90;;;11.79;100.00;101085.38;5029165;28;20234;-63
2022/06/10 01:34:26;;;;;;;440.13;415.33;;;11.90;99.90;;;11.89;100.00;101089.06;5001340;28;20206;-63
2022/06/10 01:37:20;;;;;;;448.98;423.60;;;11.90;99.90;;;11.97;100.00;101083.00;5051924;28;20201;-63
2022/06/10 01:40:29;;;;;;;455.17;428.52;;;12.00;99.90;;;11.68;100.00;101077.22;5020837;28;20198;-63
2022/06/10 01:43:28;;;;;;;446.70;420.02;;;11.90;99.90;;;11.49;100.00;101089.28;5027378;28;20218;-63
2022/06/10 01:46:30;;;;;;;438.35;413.75;;;11.80;99.90;;;11.41;100.00;101106.81;5040642;28;20557;-63
2022/06/10 01:49:24;;;;;;;436.38;410.80;;;11.70;99.90;;;11.47;100.00;101120.16;5012142;28;20203;-63
2022/06/10 01:52:11;;;;;;;444.90;418.02;;;11.70;99.90;;;11.40;100.00;101120.94;5030626;28;20238;-63
2022/06/10 01:55:00;;;;;;;431.33;406.55;;;11.60;99.90;;;11.34;100.00;101120.81;5013393;28;20206;-63
2022/06/10 01:57:43;;;;;;;443.77;417.20;;;11.60;99.90;;;11.50;100.00;101138.75;5031172;28;20221;-63
2022/06/10 02:00:26;;;;;;;446.13;418.92;;;11.60;99.90;;;11.54;100.00;101143.22;5036600;28;20224;-63
2022/06/10 02:03:09;;;;;;;444.00;416.92;;;11.60;99.90;;;11.50;100.00;101149.34;5037048;28;20222;-63
2022/06/10 02:05:47;;;;;;;441.77;414.75;;;11.60;99.90;;;11.35;100.00;101149.09;5055323;28;20202;-63
2022/06/10 02:08:29;;;;;;;439.60;412.98;;;11.60;99.90;;;11.31;100.00;101157.84;5031149;28;20210;-63
2022/06/10 02:11:12;;;;;;;449.35;421.30;;;11.50;99.90;;;11.06;100.00;101151.22;5036294;28;20268;-63
2022/06/10 02:13:55;;;;;;;425.05;400.08;;;11.40;99.90;;;11.06;100.00;101152.97;5010126;28;20209;-63
2022/06/10 02:16:34;;;;;;;410.33;386.85;;;11.30;99.90;;;11.00;100.00;101161.69;5020044;28;20206;-63
2022/06/10 02:19:28;;;;;;;422.10;396.50;;;11.30;99.90;;;11.11;100.00;101177.78;5008471;28;20206;-63
2022/06/10 02:22:25;;;;;;;416.85;391.75;;;11.20;99.90;;;11.30;100.00;101197.53;5010386;28;20222;-63
2022/06/10 02:25:09;;;;;;;424.08;397.95;;;11.30;99.90;;;11.33;100.00;101211.72;5020464;28;20237;-63
2022/06/10 02:27:42;;;;;;;406.65;382.77;;;11.40;99.90;;;11.37;100.00;101216.22;5024274;28;20198;-63
2022/06/10 02:30:34;;;;;;;405.40;381.83;;;11.40;99.90;;;11.34;100.00;101221.47;5027528;28;20205;-63
2022/06/10 02:33:03;;;;;;;409.98;385.35;;;11.40;99.90;;;11.10;100.00;101227.19;5014072;28;20202;-63
2022/06/10 02:35:56;;;;;;;423.77;398.48;;;11.40;99.90;;;11.03;100.00;101234.97;5031822;28;20217;-63
2022/06/10 02:39:04;;;;;;;405.92;381.83;;;11.30;99.90;;;10.80;100.00;101227.47;5021411;28;20195;-63
2022/06/10 02:42:15;;;;;;;388.20;364.90;;;11.20;99.90;;;10.93;100.00;101236.53;5020838;28;20713;-63
2022/06/10 02:45:15;;;;;;;386.10;362.02;;;11.10;99.90;;;10.66;100.00;101242.16;4988003;28;20207;-63
2022/06/10 02:47:53;;;;;;;389.75;365.95;;;11.10;99.90;;;10.78;100.00;101249.47;5027844;28;20210;-63
2022/06/10 02:50:21;;;;;;;397.60;373.27;;;10.90;99.90;;;10.96;100.00;101256.88;5031913;28;20285;-63
2022/06/10 02:52:50;;;;;;;407.73;382.73;;;11.00;99.90;;;10.76;100.00;101244.13;5052533;28;20199;-63
2022/06/10 02:55:23;;;;;;;401.08;377.38;;;11.00;99.90;;;10.68;100.00;101261.59;5046398;28;20221;-63
2022/06/10 03:01:14;;;;;;;391.92;367.88;;;10.90;99.90;;;10.68;100.00;101289.81;5013917;28;20234;-62
2022/06/10 03:04:18;;;;;;;379.10;356.33;;;10.80;99.90;;;10.69;100.00;101294.22;5011532;28;20214;-63
2022/06/10 03:07:23;;;;;;;372.40;350.50;;;10.80;99.90;;;10.61;100.00;101301.09;5017092;28;20825;-63
2022/06/10 03:10:09;;;;;;;361.33;340.23;;;10.80;99.90;;;10.60;100.00;101297.56;5031732;28;20202;-63
2022/06/10 03:12:51;;;;;;;370.05;348.17;;;10.80;99.90;;;10.65;100.00;101303.84;5066811;28;20221;-63
2022/06/10 03:15:51;;;;;;;375.23;352.88;;;10.70;99.90;;;10.59;100.00;101314.28;5033732;28;20207;-63
2022/06/10 03:18:29;;;;;;;376.23;353.00;;;10.80;99.90;;;10.33;100.00;101316.31;5014816;28;20661;-63
2022/06/10 03:21:51;;;;;;;368.23;345.75;;;10.70;99.90;;;10.44;100.00;101316.59;5031915;28;20224;-63
2022/06/10 03:25:03;;;;;;;362.73;340.35;;;10.60;99.90;;;10.62;100.00;101330.25;4989673;28;20237;-63
2022/06/10 03:27:54;;;;;;;371.58;346.77;;;10.60;99.90;;;10.50;100.00;101328.19;5029653;28;20229;-63
2022/06/10 03:30:30;;;;;;;357.38;335.88;;;10.60;99.90;;;10.42;100.00;101339.47;5028870;28;20217;-63
2022/06/10 03:33:07;;;;;;;364.63;342.30;;;10.60;99.90;;;10.36;100.00;101329.59;5035185;28;20202;-63
2022/06/10 03:35:45;;;;;;;361.35;339.27;;;10.50;99.90;;;10.30;100.00;101341.78;5012022;28;20229;-63
2022/06/10 03:38:13;;;;;;;367.00;344.60;;;10.50;99.90;;;10.31;100.00;101346.19;5016915;28;20197;-63
2022/06/10 03:40:45;;;;;;;376.27;351.98;;;10.40;99.90;;;10.49;100.00;101359.91;5032095;28;20222;-63
2022/06/10 03:43:14;;;;;;;371.90;348.23;;;10.50;99.90;;;10.47;100.00;101373.09;5001545;28;20213;-63
2022/06/10 03:45:51;;;;;;;376.02;352.55;;;10.50;99.90;;;10.35;100.00;101363.94;5021480;28;20197;-63
2022/06/10 03:48:22;;;;;;;382.98;357.25;;;10.50;99.90;;;10.31;100.00;101389.41;5042188;28;20194;-63
2022/06/10 03:50:51;;;;;;;363.70;341.60;;;10.50;99.90;;;10.32;100.00;101411.44;5018349;28;20227;-63
2022/06/10 03:53:23;;;;;;;360.77;339.05;;;10.50;99.90;;;10.26;100.00;101412.19;5014340;28;20210;-63
2022/06/10 03:55:52;;;;;;;373.75;349.38;;;10.40;99.90;;;10.35;100.00;101430.03;5011988;28;20198;-63
2022/06/10 03:58:20;;;;;;;380.08;354.70;;;10.50;99.90;;;10.35;100.00;101435.31;5048572;28;20216;-63
2022/06/10 04:00:48;;;;;;;385.17;358.73;;;10.40;99.90;;;10.37;100.00;101445.09;5016894;28;20575;-63
2022/06/10 04:03:16;;;;;;;384.60;358.60;;;10.40;99.90;;;10.40;100.00;101458.41;5014134;28;20226;-63
2022/06/10 04:05:44;;;;;;;373.20;348.80;;;10.50;99.90;;;10.43;100.00;101458.50;5001677;28;20222;-63
2022/06/10 04:08:32;;;;;;;357.00;335.25;;;10.50;99.90;;;10.52;100.00;101486.94;5019506;28;20213;-62
2022/06/10 04:11:00;;;;;;;362.55;340.35;;;10.50;99.90;;;10.54;100.00;101494.03;5041799;28;20217;-62
2022/06/10 04:13:29;;;;;;;366.00;343.73;;;10.50;99.90;;;10.59;100.00;101494.16;5014901;28;20211;-62
2022/06/10 04:15:56;;;;;;;359.63;338.08;;;10.60;99.90;;;10.67;100.00;101511.13;5018816;28;20209;-63
2022/06/10 04:18:25;;;;;;;362.27;339.98;;;10.60;99.90;;;10.73;100.00;101494.53;5003978;28;20210;-63
2022/06/10 04:20:53;;;;;;;355.73;335.17;;;10.70;99.90;;;10.71;100.00;101486.53;5014637;28;20245;-63
2022/06/10 04:23:21;;;;;;;362.83;341.33;;;10.70;99.90;;;10.63;100.00;101481.91;5009296;28;20217;-63
2022/06/10 04:25:49;;;;;;;365.23;342.77;;;10.70;99.90;;;10.72;100.00;101493.63;5030379;28;20207;-63
2022/06/10 04:28:16;;;;;;;366.65;344.23;;;10.70;99.90;;;10.76;100.00;101497.25;5009279;28;20202;-63
2022/06/10 04:30:49;;;;;;;383.63;359.25;;;10.70;99.90;;;10.71;100.00;101489.19;5038407;28;20222;-62
2022/06/10 04:33:17;;;;;;;396.13;368.65;;;10.70;99.90;;;10.83;100.00;101496.53;5048233;28;20218;-62
2022/06/10 04:35:48;;;;;;;375.38;351.77;;;10.70;99.90;;;10.95;100.00;101488.00;5032259;28;20202;-62
2022/06/10 04:38:20;;;;;;;398.40;371.27;;;10.80;99.90;;;11.00;100.00;101483.72;5028904;28;20220;-63
2022/06/10 04:40:48;;;;;;;376.90;353.95;;;10.80;99.90;;;11.05;100.00;101497.94;5022468;28;20233;-62
2022/06/10 04:43:18;;;;;;;365.52;343.73;;;10.90;99.90;;;11.10;100.00;101520.13;4998369;28;20225;-62
2022/06/10 04:45:51;;;;;;;374.52;351.85;;;11.00;99.90;;;11.18;100.00;101534.44;5033865;28;20194;-62
2022/06/10 04:48:19;;;;;;;374.88;352.58;;;11.00;99.90;;;11.23;100.00;101559.28;5044090;28;20606;-63
2022/06/10 04:50:47;;;;;;;392.63;368.02;;;11.10;99.90;;;11.34;100.00;101580.72;5029172;28;20230;-63
2022/06/10 04:53:16;;;;;;;378.98;357.13;;;11.20;99.90;;;11.45;100.00;101588.06;5038838;28;20221;-63
2022/06/10 04:55:44;;;;;;;380.55;357.80;;;11.20;99.90;;;11.68;100.00;101607.16;5015719;28;20214;-63
2022/06/10 04:58:13;;;;;;;385.13;361.90;;;11.30;99.90;;;11.71;100.00;101603.72;5019338;28;20210;-63
2022/06/10 05:00:47;;;;;;;388.02;365.80;;;11.40;99.90;;;11.79;100.00;101587.16;5003984;28;20226;-62
2022/06/10 05:03:19;;;;;;;392.45;368.23;;;11.40;99.90;;;11.90;100.00;101575.91;5025892;28;20728;-63
2022/06/10 05:05:54;;;;;;;370.38;347.90;;;11.50;99.90;;;11.95;100.00;101572.50;5011214;28;20217;-62
2022/06/10 05:08:28;;;;;;;375.75;353.80;;;11.60;99.90;;;12.13;100.00;101587.91;5036492;28;20215;-63
2022/06/10 05:11:02;;;;;;;403.08;378.10;;;11.60;99.90;;;12.17;100.00;101577.38;5015144;28;20226;-62
2022/06/10 05:13:35;;;;;;;384.75;363.13;;;11.70;99.90;;;12.42;100.00;101594.69;5026465;28;20662;-62
2022/06/10 05:16:04;;;;;;;369.77;349.83;;;11.80;99.90;;;12.55;100.00;101592.28;5001756;28;20194;-63
2022/06/10 05:18:33;;;;;;;400.98;378.38;;;11.90;99.90;;;12.65;100.00;101595.13;5042338;28;20199;-63
2022/06/10 05:21:01;;;;;;;410.42;388.05;;;12.00;99.90;;;12.76;100.00;101600.66;5012738;28;20229;-63
2022/06/10 05:23:29;;;;;;;411.02;387.83;;;12.20;99.90;;;12.90;100.00;101608.88;5024093;28;20236;-63
2022/06/10 05:25:58;;;;;;;407.58;384.90;;;12.30;99.90;;;12.96;100.00;101590.38;5057704;28;20198;-62
2022/06/10 05:28:26;;;;;;;412.45;390.38;;;12.40;99.90;;;13.06;100.00;101587.94;5017221;28;20210;-63
2022/06/10 05:30:54;;;;;;;436.27;411.90;;;12.50;99.90;;;13.28;100.00;101593.66;5042576;28;20214;-62
2022/06/10 05:33:22;;;;;;;444.67;419.52;;;12.50;99.90;;;13.47;100.00;101585.09;5017599;28;20673;-63
2022/06/10 05:35:50;;;;;;;428.65;405.35;;;12.70;99.90;;;13.55;100.00;101575.50;5038112;28;20715;-63
2022/06/10 05:38:18;;;;;;;455.75;430.05;;;12.70;99.90;;;13.54;100.00;101559.50;5036031;28;20202;-63
2022/06/10 05:40:46;;;;;;;440.80;417.98;;;12.80;99.90;;;13.81;100.00;101577.63;5021279;28;20222;-62
2022/06/10 05:43:14;;;;;;;448.48;424.40;;;13.00;99.90;;;13.92;100.00;101557.41;5024723;28;20207;-63
2022/06/10 05:45:42;;;;;;;466.73;441.02;;;13.10;99.90;;;14.15;100.00;101569.22;5004618;28;20226;-62
2022/06/10 05:48:11;;;;;;;482.65;455.67;;;13.30;99.90;;;14.21;100.00;101542.69;5041665;28;20208;-63
2022/06/10 05:50:42;;;;;;;468.38;443.35;;;13.40;99.90;;;14.26;100.00;101519.69;5013539;28;20218;-63
2022/06/10 05:53:12;;;;;;;484.40;459.02;;;13.50;99.90;;;14.40;100.00;101522.53;4993333;28;20212;-63
2022/06/10 05:55:40;;;;;;;472.23;448.00;;;13.70;99.90;;;14.51;100.00;101504.94;5007728;28;20230;-63
2022/06/10 05:58:09;;;;;;;483.92;459.00;;;13.80;99.90;;;14.81;100.00;101512.31;5026303;28;20203;-62
2022/06/10 06:00:37;;;;;;;483.27;459.30;;;14.00;99.90;;;14.95;100.00;101504.44;5026778;28;20230;-63
2022/06/10 06:03:05;;;;;;;451.45;430.50;;;14.10;99.90;;;14.89;100.00;101488.41;5017969;28;20217;-63
2022/06/10 06:05:34;;;;;;;437.55;416.88;;;14.30;99.90;;;14.98;100.00;101480.50;5016693;28;20580;-63
2022/06/10 06:08:03;;;;;;;455.30;434.83;;;14.40;99.90;;;15.15;100.00;101489.50;5025062;28;20199;-63
2022/06/10 06:10:31;;;;;;;473.67;451.42;;;14.60;99.90;;;15.17;100.00;101479.75;5012964;28;20202;-62
2022/06/10 06:12:58;;;;;;;483.73;460.55;;;14.70;99.90;;;15.32;100.00;101479.84;5053674;28;20232;-63
2022/06/10 06:15:27;;;;;;;503.20;479.23;;;14.80;99.90;;;15.38;100.00;101469.22;5030653;28;20205;-63
2022/06/10 06:17:54;;;;;;;516.47;491.42;;;14.90;99.90;;;15.68;100.00;101468.56;5033486;28;20673;-63
2022/06/10 06:20:23;;;;;;;515.95;491.27;;;15.10;99.90;;;15.68;100.00;101457.00;5003093;28;20217;-63
2022/06/10 06:22:53;;;;;;;523.90;499.13;;;15.30;99.90;;;15.66;100.00;101432.09;5037398;28;20216;-63
2022/06/10 06:25:21;;;;;;;530.95;505.30;;;15.40;99.90;;;15.77;100.00;101443.69;5033523;28;20222;-63
2022/06/10 06:27:50;;;;;;;567.88;540.03;;;15.50;99.90;;;16.00;100.00;101443.78;5015810;28;20205;-63
2022/06/10 06:30:30;;;;;;;560.28;533.95;;;15.50;99.90;;;16.17;100.00;101441.16;5037576;28;20208;-63
2022/06/10 06:33:02;;;;;;;548.30;523.00;;;15.70;99.90;;;16.33;100.00;101446.50;5059202;28;20217;-63
2022/06/10 06:35:34;;;;;;;595.10;565.78;;;15.80;99.90;;;16.35;100.00;101433.16;5020493;28;20206;-63
2022/06/10 06:38:04;;;;;;;559.00;532.80;;;16.00;99.90;;;16.46;100.00;101420.72;5003024;28;20222;-63
2022/06/10 06:40:33;;;;;;;558.13;532.00;;;16.20;99.90;;;16.24;100.00;101398.47;5017004;28;20198;-63
2022/06/10 06:43:01;;;;;;;550.33;524.72;;;16.20;99.90;;;16.63;100.00;101434.06;5025822;28;20218;-63
2022/06/10 06:45:30;;;;;;;567.35;540.78;;;16.20;99.90;;;16.46;100.00;101406.47;5009911;28;20241;-63
2022/06/10 06:48:10;;;;;;;565.80;538.75;;;16.30;99.90;;;16.59;100.00;101429.63;5008526;28;20202;-63
2022/06/10 06:50:49;;;;;;;575.20;548.35;;;16.40;99.90;;;16.78;100.00;101439.44;5031530;28;20236;-63
2022/06/10 06:53:18;;;;;;;575.45;548.25;;;16.60;99.90;;;16.89;100.00;101435.00;5014562;28;20209;-63
2022/06/10 06:55:46;;;;;;;566.70;540.17;;;16.60;99.90;;;17.14;100.00;101427.84;4995096;28;20206;-63
2022/06/10 06:58:17;;;;;;;588.55;560.53;;;16.80;99.90;;;17.23;100.00;101410.91;5008466;28;20212;-63
2022/06/10 07:00:48;;;;;;;567.42;540.85;;;17.00;99.90;;;17.34;100.00;101401.06;5010397;28;20240;-63
2022/06/10 07:03:16;;;;;;;581.28;554.25;;;17.10;99.90;;;18.07;100.00;101434.66;5034613;28;20209;-63
2022/06/10 07:05:44;;;;;;;579.63;552.58;;;17.50;99.90;;;17.78;100.00;101392.88;5002968;28;20238;-63
2022/06/10 07:08:12;;;;;;;578.47;552.20;;;17.60;99.90;;;17.80;100.00;101371.47;5036261;28;20194;-63
2022/06/10 07:10:41;;;;;;;574.63;548.10;;;17.70;99.90;;;17.44;100.00;101335.06;5029819;28;20237;-63
2022/06/10 07:13:09;;;;;;;611.03;582.20;;;17.60;99.90;;;18.09;100.00;101384.66;5033165;28;20206;-63
2022/06/10 07:15:37;;;;;;;564.60;539.13;;;17.70;99.90;;;18.50;100.00;101360.28;5045913;28;20682;-63
2022/06/10 07:18:06;;;;;;;585.13;557.65;;;18.00;99.90;;;18.39;100.00;101313.97;5014242;28;20206;-64
2022/06/10 07:20:37;;;;;;;591.55;563.92;;;18.20;99.90;;;18.11;100.00;101268.66;5052129;28;20229;-63
2022/06/10 07:23:06;;;;;;;597.72;570.13;;;18.20;99.90;;;18.18;100.00;101285.53;5009720;28;20221;-64
2022/06/10 07:25:35;;;;;;;599.97;572.70;;;18.10;99.90;;;18.10;100.00;101252.59;5010250;28;20230;-64
2022/06/10 07:28:04;;;;;;;643.42;612.78;;;18.00;99.90;;;18.57;100.00;101321.81;5012305;28;21175;-64
2022/06/10 07:30:34;;;;;;;620.13;590.75;;;18.10;99.90;;;18.61;100.00;101286.09;5001671;28;20203;-64
2022/06/10 07:33:02;;;;;;;648.40;617.42;;;18.40;99.90;;;18.81;100.00;101315.34;5036128;28;20214;-64
2022/06/10 07:35:30;;;;;;;600.25;572.10;;;18.60;99.90;;;19.35;100.00;101302.19;5025535;28;20201;-63
2022/06/10 07:37:59;;;;;;;617.10;588.10;;;19.00;99.90;;;19.62;100.00;101277.72;5005899;28;20209;-63
2022/06/10 07:43:39;;;;;;;672.20;638.92;;;19.70;99.90;;;20.06;100.00;101305.69;5039755;28;20202;-63
2022/06/10 07:46:09;;;;;;;649.95;618.58;;;19.90;99.90;;;19.95;99.47;101217.25;5040564;28;20225;-64
2022/06/10 07:48:37;;;;;;;578.10;550.53;;;20.30;99.90;;;20.26;100.00;101270.44;5016274;28;20221;-64
2022/06/10 07:51:05;;;;;;;570.47;543.15;;;20.60;99.90;;;20.13;97.51;101176.66;5031871;28;20290;-63
2022/06/10 07:53:34;;;;;;;576.10;548.00;;;20.70;99.90;;;20.17;97.14;101177.47;5013044;28;20205;-64
2022/06/10 07:56:03;;;;;;;546.63;519.95;;;20.70;99.90;;;20.65;97.25;101207.03;5027036;28;20202;-63
2022/06/10 07:58:31;;;;;;;580.30;551.72;;;20.90;99.90;;;20.55;93.76;101157.06;5026597;28;20214;-63
2022/06/10 08:00:59;;;;;;;582.92;554.35;;;21.10;99.90;;;20.40;93.54;101124.22;5000930;28;20234;-63
2022/06/10 08:03:33;;;;;;;549.47;521.97;;;21.10;99.90;;;20.64;92.17;101125.50;5042889;28;20229;-63
2022/06/10 08:06:02;;;;;;;543.00;515.67;;;21.40;99.90;;;20.95;89.17;101079.16;5001099;28;20228;-63
2022/06/10 08:08:30;;;;;;;534.72;508.38;;;21.80;99.90;;;20.43;90.29;101037.28;5032156;28;20194;-63
2022/06/10 08:10:58;;;;;;;534.00;506.83;;;21.70;99.90;;;20.07;94.68;101049.66;5012096;28;20225;-63
2022/06/10 08:13:26;;;;;;;540.13;513.28;;;21.00;99.90;;;20.56;94.17;101108.66;5012718;28;20225;-63
2022/06/10 08:15:57;;;;;;;549.28;521.80;;;21.10;99.90;;;21.11;93.59;101139.72;5018488;28;20197;-63
2022/06/10 08:18:30;;;;;;;605.78;574.63;;;21.50;99.90;;;21.18;92.88;101133.28;5017874;28;20197;-63
2022/06/10 08:23:46;;;;;;;616.13;584.50;;;22.10;99.90;;;21.93;91.00;101129.63;5035499;28;20210;-64
2022/06/10 08:26:14;;;;;;;644.95;611.22;;;22.50;99.90;;;21.92;91.34;101100.91;5000410;28;20240;-64
2022/06/10 08:28:45;;;;;;;610.55;578.53;;;23.00;99.90;;;21.73;90.84;101060.16;5023534;28;20197;-64
2022/06/10 08:31:14;;;;;;;624.55;591.88;;;22.70;99.90;;;21.80;90.47;101057.28;5039193;28;20239;-64
2022/06/10 08:33:42;;;;;;;664.83;629.63;;;22.70;99.90;;;21.98;88.94;101062.16;5009855;28;20199;-64
2022/06/10 08:36:13;;;;;;;709.08;670.70;;;22.70;99.90;;;21.93;88.88;101038.06;5021122;28;20209;-63
2022/06/10 08:38:42;;;;;;;959.78;907.25;;;22.90;99.90;;;23.72;87.67;101133.28;5028636;28;20220;-63
2022/06/10 08:41:26;;;;;;;914.70;864.50;;;23.60;99.90;;;22.63;86.03;100955.16;5026839;28;20240;-64
2022/06/10 08:44:01;;;;;;;874.83;825.65;;;24.00;99.90;;;21.86;85.23;100879.41;5022320;28;20208;-63
2022/06/10 08:47:14;;;;;;;1015.25;958.38;;;23.30;99.90;;;22.82;82.42;100947.38;5055013;28;20224;-63
2022/06/10 08:50:17;;;;;;;1039.63;979.97;;;23.30;99.90;;;21.69;84.21;100826.06;5013890;28;20224;-64
2022/06/10 08:53:10;;;;;;;1051.78;989.17;;;23.30;99.90;;;22.91;86.98;100998.31;5011659;28;20215;-63
2022/06/10 08:55:53;;;;;;;1053.95;992.13;;;23.60;99.90;;;22.10;83.98;100821.22;5030221;28;20209;-64
2022/06/10 08:58:32;;;;;;;1061.55;995.67;;;23.90;99.90;;;22.96;83.60;100933.41;5033199;28;20203;-64
2022/06/10 09:01:06;;;;;;;1067.30;998.33;;;25.70;99.90;;;23.20;84.79;100959.56;5019585;28;20225;-63
2022/06/10 09:03:43;;;;;;;1078.32;999.90;;;24.70;99.90;;;24.00;84.63;101027.84;5015441;28;20205;-63
2022/06/10 09:07:02;;;;;;;1085.28;999.90;;;25.10;99.90;;;23.89;79.91;100903.97;5011151;28;20232;-63
2022/06/10 09:09:32;;;;;;;1085.25;999.90;;;26.00;99.90;;;24.08;81.13;100925.75;4991826;28;20213;-64
2022/06/10 09:12:12;;;;;;;1093.30;999.90;;;25.30;99.90;;;23.08;79.68;100743.28;5007869;28;20233;-63
2022/06/10 09:14:42;;;;;;;1102.80;999.90;;;;;;;23.52;79.30;100818.06;5001703;28;20198;-63
2022/06/10 09:17:20;;;;;;;1103.55;999.90;;;24.80;99.90;;;22.74;79.83;100724.72;5019313;28;20189;-63
2022/06/10 09:20:09;;;;;;;1098.20;999.90;;;24.20;99.90;;;23.62;81.99;100875.31;5039238;28;20200;-64
2022/06/10 09:23:02;;;;;;;1097.70;999.90;;;24.50;99.90;;;23.59;80.48;100825.00;5017305;28;20218;-64
2022/06/10 09:25:46;;;;;;;1102.32;999.90;;;24.40;99.90;;;23.79;80.52;100843.16;5026821;28;20643;-64
2022/06/10 09:28:15;;;;;;;1099.45;999.90;;;25.10;99.90;;;23.54;78.61;100775.72;5047168;28;20208;-64
2022/06/10 09:30:56;;;;;;;1108.85;999.90;;;25.20;99.90;;;23.88;80.14;100825.69;5018964;28;20224;-64
2022/06/10 09:33:37;;;;;;;1112.13;999.90;;;25.00;99.90;;;23.45;79.44;100749.03;5014760;28;20206;-63
2022/06/10 09:36:09;;;;;;;1114.00;999.90;;;;;;;23.43;79.79;100742.84;5024617;28;20201;-63
2022/06/10 09:40:35;;;;;;;1119.38;999.90;;;25.70;99.90;;;24.57;77.04;100838.16;5003605;28;20202;-64
2022/06/10 09:42:38;;;;;;;1126.80;999.90;;;26.50;99.90;;;24.64;75.81;100776.59;5028404;28;20233;-63
2022/06/10 09:45:29;;;;;;;1132.05;999.90;;;26.40;99.90;;;25.23;74.08;100827.22;5029515;28;20210;-64
2022/06/10 09:48:46;;;;;;;1141.70;999.90;;;27.30;99.90;;;25.41;75.13;100779.47;5019433;28;20197;-64
2022/06/10 09:51:50;;;;;;;1142.93;999.90;;;26.80;99.90;;;24.98;74.85;100730.03;5038622;28;20700;-64
2022/06/10 09:54:36;;;;;;;1150.70;999.90;;;26.80;99.90;;;24.91;74.70;100696.06;5074261;28;20207;-64
2022/06/10 09:57:04;;;;;;;1155.55;999.90;;;;;;;25.41;71.83;100723.50;5042113;28;20202;-63
2022/06/10 09:59:44;;;;;;;1140.97;999.90;;;27.10;99.90;;;24.84;72.79;100599.91;5037714;28;20210;-64
2022/06/10 10:02:24;;;;;;;1043.13;982.47;;;25.90;99.90;;;23.99;73.17;100514.59;5033040;28;20221;-64
2022/06/10 10:05:28;;;;;;;1025.72;965.45;;;25.60;99.90;;;24.36;70.99;100536.31;5041418;28;20248;-64
2022/06/10 10:08:29;;;;;;;1093.82;999.90;;;26.10;99.90;;;25.19;70.73;100620.78;5030885;28;20221;-64
2022/06/10 10:11:36;;;;;;;1149.13;999.90;;;26.40;99.90;;;25.45;69.39;100594.25;5014857;28;20217;-64
2022/06/10 10:14:19;;;;;;;1154.95;999.90;;;26.80;99.90;;;25.65;68.50;100569.78;5032941;28;20197;-64
2022/06/10 10:16:49;;;;;;;1152.68;999.90;;;26.80;99.90;;;26.00;68.18;100592.34;5016796;28;20210;-64
2022/06/10 10:19:54;;;;;;;1162.95;999.90;;;27.20;99.90;;;25.58;65.42;100432.03;5034033;28;20223;-63
2022/06/10 10:23:02;;;;;;;1163.45;999.90;;;27.50;99.90;;;25.97;66.43;100497.66;5037650;28;20236;-64
2022/06/10 10:25:31;;;;;;;1064.40;998.28;;;27.40;99.90;;;25.47;68.47;100438.88;5025293;28;20204;-63
2022/06/10 10:27:59;;;;;;;1089.72;999.90;;;27.50;99.90;;;25.88;65.66;100441.25;5032380;28;20218;-64
2022/06/10 10:30:42;;;;;;;973.25;914.60;;;27.20;99.90;;;26.15;67.34;100493.09;4994682;28;20591;-64
2022/06/10 10:33:14;;;;;;;1126.38;999.90;;;27.80;99.90;;;26.41;64.96;100468.19;5031790;28;20197;-64